Raccoon, Illinois
Current Conditions -  °F | °C
As of 2:15 PM on Sunday 23 Nov 2014 (Local Time) from KENL Reporting Station
Light Rain Light Rain  
Wind Chill: 52°   Ceiling: 2500
Heat Index: 52°   Visibility: 5mi
Dew Point: 49°   Wind: 7mph
Humidity: 90%   Direction: 120°ESE
Pressure: 29.44"   Gusts: 18mph
Location:  38.5134°N, 89.1673°W
Report Text: KENL 232015Z AUTO 12006G16KT 5SM -RA SCT008 SCT018 OVC025 11/10 A2944 RMK AO2 P0001 T01100095
Loading
Personal Weather Stations






























Interactive Weather Map New forecast layout! Learn more

10-Day Weather Forecast

Advertisements
Track Severe Weather on mobile